createdAt,value
2022-09-12T00:04:15.831Z,89.65
2022-09-12T00:13:51.483Z,90.40
2022-09-12T00:23:24.029Z,90.95
2022-09-12T00:32:58.423Z,91.86
2022-09-12T00:42:34.353Z,91.81
2022-09-12T00:52:08.366Z,92.37
2022-09-12T01:01:40.721Z,92.88
2022-09-12T01:11:14.982Z,93.31
2022-09-12T01:20:49.171Z,93.51
2022-09-12T01:30:23.128Z,93.63
2022-09-12T01:39:57.284Z,94.12
2022-09-12T01:49:31.704Z,94.27
2022-09-12T01:59:07.451Z,94.65
2022-09-12T02:08:39.498Z,95.10
2022-09-12T02:18:13.907Z,94.93
2022-09-12T02:27:48.041Z,95.00
2022-09-12T02:37:23.987Z,94.29
2022-09-12T02:46:56.261Z,94.20
2022-09-12T02:56:31.340Z,94.32
2022-09-12T03:06:06.315Z,95.40
2022-09-12T03:15:38.693Z,95.47
2022-09-12T03:25:15.547Z,95.85
2022-09-12T03:34:48.958Z,95.97
2022-09-12T03:44:21.524Z,95.80
2022-09-12T03:53:55.726Z,95.71
2022-09-12T04:03:31.270Z,96.12
2022-09-12T04:13:04.016Z,96.03
2022-09-12T04:22:39.425Z,97.14
2022-09-12T04:32:12.482Z,97.39
2022-09-12T04:41:46.445Z,97.22
2022-09-12T04:51:22.112Z,97.37
2022-09-12T05:00:54.811Z,97.14
2022-09-12T05:10:29.406Z,97.76
2022-09-12T05:20:03.500Z,97.65
2022-09-12T05:29:39.357Z,97.69
2022-09-12T05:39:11.567Z,98.56
2022-09-12T05:48:45.762Z,98.72
2022-09-12T05:58:20.098Z,99.94
2022-09-12T06:07:56.676Z,100.00
2022-09-12T06:17:29.896Z,100.00
2022-09-12T06:27:06.614Z,100.00
2022-09-12T06:36:39.727Z,99.72
2022-09-12T06:46:14.776Z,98.17
2022-09-12T06:55:51.149Z,96.69
2022-09-12T07:05:24.001Z,96.37
2022-09-12T07:14:58.873Z,96.28
2022-09-12T07:24:33.579Z,95.93
2022-09-12T07:34:08.543Z,93.99
2022-09-12T07:43:43.483Z,93.70
2022-09-12T07:44:46.015Z,92.90
2022-09-12T07:45:48.569Z,92.95
2022-09-12T07:46:50.988Z,93.22
2022-09-12T07:56:30.067Z,90.79
2022-09-12T07:57:30.166Z,90.56
2022-09-12T07:58:32.490Z,89.85
2022-09-12T07:59:51.831Z,89.86
2022-09-12T08:00:37.504Z,89.73
2022-09-12T08:01:40.102Z,89.91
2022-09-12T08:02:42.423Z,90.06
2022-09-12T08:03:44.911Z,90.36
2022-09-12T08:04:47.421Z,90.48
2022-09-12T08:05:49.845Z,90.27
2022-09-12T08:06:52.357Z,90.27
2022-09-12T08:07:57.721Z,89.77
2022-09-12T08:08:57.229Z,88.72
2022-09-12T08:09:59.645Z,88.75
2022-09-12T08:11:02.113Z,89.15
2022-09-12T08:12:06.239Z,89.59
2022-09-12T08:13:10.865Z,87.74
2022-09-12T08:14:14.077Z,87.89
2022-09-12T08:15:16.473Z,87.20
2022-09-12T08:16:18.980Z,86.85
2022-09-12T08:17:21.455Z,85.84
2022-09-12T08:18:23.853Z,85.97
2022-09-12T08:19:26.344Z,85.63
2022-09-12T08:20:28.899Z,86.33
2022-09-12T08:21:31.414Z,87.05
2022-09-12T08:22:35.440Z,87.00
2022-09-12T08:23:37.809Z,86.90
2022-09-12T08:33:11.244Z,86.49
2022-09-12T08:34:13.764Z,87.19
2022-09-12T08:35:16.286Z,87.39
2022-09-12T08:36:18.781Z,87.85
2022-09-12T08:37:22.845Z,86.37
2022-09-12T08:38:25.211Z,85.94
2022-09-12T08:39:27.692Z,84.97
2022-09-12T08:40:30.148Z,85.21
2022-09-12T08:41:34.265Z,85.51
2022-09-12T08:42:38.179Z,82.95
2022-09-12T08:43:40.631Z,81.76
2022-09-12T08:44:44.012Z,82.90
2022-09-12T08:45:46.571Z,83.33
2022-09-12T08:46:50.604Z,84.35
2022-09-12T08:47:53.051Z,84.46
2022-09-12T08:48:57.131Z,85.17
2022-09-12T08:50:01.128Z,85.09
2022-09-12T08:51:05.089Z,85.15
2022-09-12T08:52:07.432Z,84.95
2022-09-12T08:53:11.676Z,84.60
2022-09-12T08:54:13.929Z,82.74
2022-09-12T08:55:16.399Z,82.88
2022-09-12T08:56:20.459Z,83.16
2022-09-12T08:57:22.858Z,82.95
2022-09-12T08:58:25.281Z,82.50
2022-09-12T08:59:29.450Z,82.26
2022-09-12T09:00:33.360Z,82.21
2022-09-12T09:01:37.334Z,82.49
2022-09-12T09:02:39.718Z,82.18
2022-09-12T09:03:42.138Z,82.68
2022-09-12T09:04:45.607Z,82.96
2022-09-12T09:05:49.589Z,82.83
2022-09-12T09:06:51.986Z,82.36
2022-09-12T09:07:56.016Z,81.65
2022-09-12T09:09:00.029Z,81.34
2022-09-12T09:10:02.334Z,80.78
2022-09-12T09:11:04.854Z,81.71
2022-09-12T09:12:08.940Z,81.11
2022-09-12T09:13:11.285Z,79.93
2022-09-12T09:14:13.811Z,77.19
2022-09-12T09:15:16.271Z,77.21
2022-09-12T09:16:18.790Z,77.87
2022-09-12T09:17:21.267Z,77.90
2022-09-12T09:18:25.359Z,77.17
2022-09-12T09:19:27.771Z,78.17
2022-09-12T09:20:30.251Z,75.90
2022-09-12T09:21:32.723Z,77.09
2022-09-12T09:22:36.787Z,77.09
2022-09-12T09:23:40.720Z,78.62
2022-09-12T09:24:43.139Z,76.09
2022-09-12T09:25:46.591Z,76.15
2022-09-12T09:26:48.968Z,73.39
2022-09-12T09:27:51.396Z,73.36
2022-09-12T09:28:53.926Z,73.15
2022-09-12T09:29:57.967Z,74.67
2022-09-12T09:31:00.424Z,74.26
2022-09-12T09:32:04.445Z,71.92
2022-09-12T09:33:08.489Z,73.39
2022-09-12T09:34:12.478Z,73.94
2022-09-12T09:35:14.832Z,75.16
2022-09-12T09:36:17.310Z,74.34
2022-09-12T09:37:19.829Z,72.69
2022-09-12T09:38:22.281Z,74.35
2022-09-12T09:39:24.802Z,74.83
2022-09-12T09:40:31.101Z,72.54
2022-09-12T09:41:33.337Z,72.32
2022-09-12T09:42:35.823Z,72.08
2022-09-12T09:43:38.294Z,72.90
2022-09-12T09:44:42.372Z,73.45
2022-09-12T09:45:47.794Z,72.91
2022-09-12T09:46:50.279Z,70.00
2022-09-12T09:47:54.246Z,71.01
2022-09-12T09:48:56.686Z,69.96
2022-09-12T09:49:59.141Z,70.73
2022-09-12T09:51:01.662Z,71.07
2022-09-12T09:52:05.740Z,71.10
2022-09-12T09:53:08.118Z,70.34
2022-09-12T09:54:10.593Z,71.26
2022-09-12T09:55:13.070Z,72.15
2022-09-12T09:56:15.604Z,71.36
2022-09-12T09:57:19.736Z,69.91
2022-09-12T09:58:22.017Z,70.77
2022-09-12T09:59:26.151Z,68.45
2022-09-12T10:00:28.567Z,70.11
2022-09-12T10:01:31.049Z,70.77
2022-09-12T10:02:33.552Z,70.71
2022-09-12T10:03:36.072Z,67.46
2022-09-12T10:04:41.463Z,67.41
2022-09-12T10:05:45.071Z,66.82
2022-09-12T10:06:48.992Z,68.58
2022-09-12T10:07:51.330Z,68.07
2022-09-12T10:08:53.816Z,68.14
2022-09-12T10:09:56.330Z,67.58
2022-09-12T10:10:58.842Z,65.61
2022-09-12T10:12:01.388Z,65.97
2022-09-12T10:13:03.902Z,66.80
2022-09-12T10:14:06.416Z,65.44
2022-09-12T10:15:08.892Z,64.35
2022-09-12T10:16:13.048Z,64.45
2022-09-12T10:17:17.018Z,64.98
2022-09-12T10:18:20.935Z,64.61
2022-09-12T10:19:23.301Z,63.79
2022-09-12T10:20:25.816Z,63.18
2022-09-12T10:21:28.369Z,64.86
2022-09-12T10:22:30.836Z,66.32
2022-09-12T10:23:35.156Z,66.39
2022-09-12T10:24:37.309Z,66.32
2022-09-12T10:25:39.867Z,64.42
2022-09-12T10:26:42.396Z,66.40
2022-09-12T10:27:46.411Z,64.86
2022-09-12T10:28:48.746Z,64.20
2022-09-12T10:29:52.280Z,65.74
2022-09-12T10:30:54.793Z,65.92
2022-09-12T10:31:57.243Z,64.08
2022-09-12T10:32:59.732Z,65.15
2022-09-12T10:34:02.213Z,63.59
2022-09-12T10:43:37.008Z,65.92
2022-09-12T10:44:39.443Z,65.15
2022-09-12T10:45:41.953Z,63.95
2022-09-12T10:46:46.038Z,65.42
2022-09-12T10:47:48.547Z,64.46
2022-09-12T10:48:50.962Z,62.48
2022-09-12T10:49:53.461Z,61.06
2022-09-12T10:51:01.511Z,59.61
2022-09-12T10:52:05.308Z,60.00
2022-09-12T10:53:13.238Z,60.00
2022-09-12T10:54:16.980Z,60.04
2022-09-12T10:55:19.298Z,60.46
2022-09-12T10:56:21.779Z,61.28
2022-09-12T10:57:25.892Z,60.98
2022-09-12T10:58:29.910Z,62.88
2022-09-12T10:59:32.228Z,59.38
2022-09-12T11:00:34.685Z,60.39
2022-09-12T11:01:37.221Z,59.06
2022-09-12T11:02:39.698Z,58.75
2022-09-12T11:03:42.176Z,58.72
2022-09-12T11:04:44.678Z,59.74
2022-09-12T11:05:47.183Z,60.60
2022-09-12T11:06:55.292Z,58.55
2022-09-12T11:07:57.555Z,57.47
2022-09-12T11:09:00.087Z,58.35
2022-09-12T11:10:02.537Z,56.88
2022-09-12T11:11:06.693Z,58.39
2022-09-12T11:12:10.734Z,59.32
2022-09-12T11:13:13.147Z,58.82
2022-09-12T11:14:15.672Z,58.80
2022-09-12T11:15:18.120Z,58.25
2022-09-12T11:16:20.650Z,57.91
2022-09-12T11:17:24.754Z,57.39
2022-09-12T11:18:27.204Z,56.91
2022-09-12T11:19:31.230Z,56.32
2022-09-12T11:20:33.659Z,55.24
2022-09-12T11:21:36.187Z,55.20
2022-09-12T11:22:40.228Z,57.88
2022-09-12T11:23:44.395Z,58.46
2022-09-12T11:24:46.886Z,58.57
2022-09-12T11:25:49.365Z,58.45
2022-09-12T11:26:51.878Z,57.75
2022-09-12T11:27:56.068Z,57.00
2022-09-12T11:29:01.009Z,59.11
2022-09-12T11:30:04.906Z,57.98
2022-09-12T11:31:07.292Z,57.38
2022-09-12T11:32:09.717Z,56.35
2022-09-12T11:33:13.844Z,57.54
2022-09-12T11:34:16.308Z,56.83
2022-09-12T11:35:18.770Z,56.61
2022-09-12T11:36:21.232Z,56.08
2022-09-12T11:37:23.801Z,55.63
2022-09-12T11:38:27.877Z,55.05
2022-09-12T11:39:31.800Z,55.75
2022-09-12T11:40:34.202Z,54.06
2022-09-12T11:41:36.657Z,55.66
2022-09-12T11:42:39.103Z,54.26
2022-09-12T11:43:41.708Z,55.56
2022-09-12T11:44:44.157Z,56.42
2022-09-12T11:45:46.770Z,55.29
2022-09-12T11:46:52.032Z,53.70
2022-09-12T11:47:54.850Z,54.25
2022-09-12T11:48:57.266Z,52.36
2022-09-12T11:49:59.762Z,52.68
2022-09-12T11:51:02.215Z,53.54
2022-09-12T11:52:06.349Z,56.04
2022-09-12T11:53:08.753Z,56.85
2022-09-12T11:54:11.272Z,54.48
2022-09-12T11:55:13.766Z,54.50
2022-09-12T11:56:16.226Z,53.16
2022-09-12T11:57:18.795Z,51.30
2022-09-12T11:58:21.258Z,53.28
2022-09-12T11:59:23.832Z,52.81
2022-09-12T12:00:27.868Z,51.16
2022-09-12T12:01:30.433Z,52.38
2022-09-12T12:02:33.116Z,52.46
2022-09-12T12:03:37.114Z,54.83
2022-09-12T12:04:41.027Z,54.01
2022-09-12T12:05:45.054Z,53.74
2022-09-12T12:06:47.436Z,53.17
2022-09-12T12:07:49.908Z,53.79
2022-09-12T12:08:52.385Z,52.96
2022-09-12T12:09:56.496Z,52.22
2022-09-12T12:11:00.439Z,53.95
2022-09-12T12:12:02.816Z,50.75
2022-09-12T12:13:05.367Z,50.22
2022-09-12T12:14:07.838Z,50.47
2022-09-12T12:15:10.351Z,51.79
2022-09-12T12:16:12.922Z,53.53
2022-09-12T12:17:16.914Z,53.45
2022-09-12T12:18:19.357Z,49.82
2022-09-12T12:19:23.457Z,53.31
2022-09-12T12:20:25.855Z,51.61
2022-09-12T12:21:29.923Z,51.25
2022-09-12T12:22:33.283Z,51.06
2022-09-12T12:23:35.768Z,50.70
2022-09-12T12:24:39.771Z,52.71
2022-09-12T12:25:42.124Z,54.30
2022-09-12T12:26:44.678Z,55.59
2022-09-12T12:27:48.706Z,52.32
2022-09-12T12:28:52.670Z,52.12
2022-09-12T12:29:55.021Z,53.07
2022-09-12T12:30:59.134Z,50.94
2022-09-12T12:32:01.446Z,52.00
2022-09-12T12:33:03.917Z,51.14
2022-09-12T12:34:06.437Z,51.91
2022-09-12T12:35:08.954Z,50.23
2022-09-12T12:36:11.487Z,49.36
2022-09-12T12:37:14.005Z,49.22
2022-09-12T12:38:16.518Z,50.67
2022-09-12T12:39:20.641Z,49.92
2022-09-12T12:40:24.629Z,51.72
2022-09-12T12:41:28.538Z,50.55
2022-09-12T12:42:32.568Z,51.42
2022-09-12T12:43:34.882Z,49.52
2022-09-12T12:44:39.004Z,49.76
2022-09-12T12:45:41.389Z,49.85
2022-09-12T12:46:43.919Z,49.21
2022-09-12T12:47:46.400Z,49.57
2022-09-12T12:48:48.908Z,49.29
2022-09-12T12:49:51.510Z,49.59
2022-09-12T12:50:55.562Z,50.51
2022-09-12T12:51:59.513Z,50.00
2022-09-12T12:53:01.873Z,50.63
2022-09-12T12:54:08.729Z,48.64
2022-09-12T12:55:08.395Z,47.76
2022-09-12T12:56:12.500Z,49.27
2022-09-12T12:57:14.926Z,47.33
2022-09-12T12:58:17.416Z,47.62
2022-09-12T12:59:21.538Z,47.97
2022-09-12T13:00:25.496Z,48.24
2022-09-12T13:01:27.867Z,49.93
2022-09-12T13:02:30.414Z,49.19
2022-09-12T13:03:32.825Z,48.88
2022-09-12T13:04:35.318Z,50.88
2022-09-12T13:05:37.836Z,47.56
2022-09-12T13:06:41.956Z,49.15
2022-09-12T13:07:44.388Z,49.14
2022-09-12T13:08:48.488Z,47.02
2022-09-12T13:09:50.819Z,47.56
2022-09-12T13:10:53.353Z,47.45
2022-09-12T13:11:57.479Z,48.98
2022-09-12T13:12:59.883Z,47.60
2022-09-12T13:14:02.410Z,47.80
2022-09-12T13:15:04.923Z,46.43
2022-09-12T13:16:07.477Z,43.50
2022-09-12T13:17:10.013Z,42.54
2022-09-12T13:18:14.061Z,42.81
2022-09-12T13:19:18.485Z,45.02
2022-09-12T13:20:34.255Z,45.18
2022-09-12T13:21:21.557Z,44.43
2022-09-12T13:22:25.749Z,44.82
2022-09-12T13:23:28.127Z,45.68
2022-09-12T13:24:30.634Z,46.68
2022-09-12T13:25:33.111Z,44.58
2022-09-12T13:26:35.641Z,45.08
2022-09-12T13:27:38.189Z,46.62
2022-09-12T13:28:40.708Z,44.31
2022-09-12T13:29:44.822Z,46.54
2022-09-12T13:30:48.825Z,45.63
2022-09-12T13:31:52.773Z,45.44
2022-09-12T13:32:55.124Z,44.03
2022-09-12T13:33:57.699Z,44.94
2022-09-12T13:35:00.183Z,46.08
2022-09-12T13:36:04.344Z,45.07
2022-09-12T13:37:08.302Z,44.03
2022-09-12T13:38:12.295Z,44.18
2022-09-12T13:39:14.639Z,43.35
2022-09-12T13:40:17.157Z,43.96
2022-09-12T13:41:19.626Z,46.06
2022-09-12T13:42:24.009Z,43.27
2022-09-12T13:43:26.398Z,43.40
2022-09-12T13:44:28.881Z,45.22
2022-09-12T13:45:31.390Z,44.49
2022-09-12T13:46:35.550Z,43.73
2022-09-12T13:47:37.918Z,43.47
2022-09-12T13:48:40.387Z,46.37
2022-09-12T13:49:43.012Z,46.26
2022-09-12T13:50:45.550Z,47.29
2022-09-12T13:51:49.652Z,44.29
2022-09-12T13:52:53.153Z,43.32
2022-09-12T13:53:55.694Z,42.75
2022-09-12T13:54:58.108Z,42.93
2022-09-12T13:56:02.249Z,43.21
2022-09-12T13:57:06.262Z,43.11
2022-09-12T13:58:10.281Z,41.63
2022-09-12T13:59:13.684Z,42.46
2022-09-12T14:00:16.070Z,42.15
2022-09-12T14:01:18.704Z,42.98
2022-09-12T14:02:22.760Z,41.98
2022-09-12T14:03:26.851Z,41.71
2022-09-12T14:04:29.251Z,43.95
2022-09-12T14:05:31.727Z,43.55
2022-09-12T14:06:34.283Z,43.53
2022-09-12T14:07:36.744Z,44.29
2022-09-12T14:08:39.281Z,42.62
2022-09-12T14:09:41.753Z,43.43
2022-09-12T14:10:44.314Z,42.39
2022-09-12T14:11:48.427Z,42.77
2022-09-12T14:12:50.862Z,43.69
2022-09-12T14:13:54.963Z,42.86
2022-09-12T14:14:57.424Z,44.06
2022-09-12T14:15:59.981Z,42.74
2022-09-12T14:17:03.409Z,45.22
2022-09-12T14:18:07.444Z,42.17
2022-09-12T14:19:09.840Z,46.18
2022-09-12T14:20:12.357Z,45.33
2022-09-12T14:21:14.834Z,44.61
2022-09-12T14:22:17.364Z,44.46
2022-09-12T14:23:19.953Z,43.34
2022-09-12T14:24:23.480Z,42.10
2022-09-12T14:25:25.890Z,42.96
2022-09-12T14:26:28.390Z,43.41
2022-09-12T14:27:32.522Z,44.20
2022-09-12T14:28:34.877Z,43.02
2022-09-12T14:29:37.453Z,42.07
2022-09-12T14:30:41.564Z,44.08
2022-09-12T14:31:45.505Z,45.61
2022-09-12T14:32:47.912Z,44.07
2022-09-12T14:33:50.373Z,43.45
2022-09-12T14:34:52.891Z,43.13
2022-09-12T14:35:55.460Z,43.79
2022-09-12T14:36:57.883Z,41.63
2022-09-12T14:38:00.417Z,41.69
2022-09-12T14:39:02.905Z,41.44
2022-09-12T14:40:05.493Z,41.07
2022-09-12T14:41:07.903Z,41.84
2022-09-12T14:42:10.597Z,42.51
2022-09-12T14:43:13.090Z,42.95
2022-09-12T14:44:17.187Z,43.10
2022-09-12T14:45:19.611Z,42.71
2022-09-12T14:46:22.189Z,42.40
2022-09-12T14:47:24.663Z,41.16
2022-09-12T14:48:27.143Z,41.21
2022-09-12T14:49:31.228Z,40.94
2022-09-12T14:50:35.171Z,41.61
2022-09-12T14:51:37.546Z,41.71
2022-09-12T14:52:39.997Z,42.45
2022-09-12T14:53:44.131Z,41.74
2022-09-12T14:54:46.489Z,42.09
2022-09-12T14:55:49.008Z,44.44
2022-09-12T14:56:53.100Z,40.99
2022-09-12T14:57:55.435Z,40.24
2022-09-12T14:58:59.595Z,39.99
2022-09-12T15:00:03.555Z,40.38
2022-09-12T15:01:06.259Z,41.54
2022-09-12T15:02:10.237Z,41.29
2022-09-12T15:03:12.682Z,41.40
2022-09-12T15:04:15.204Z,41.45
2022-09-12T15:05:17.689Z,41.30
2022-09-12T15:06:20.199Z,40.15
2022-09-12T15:07:22.767Z,41.71
2022-09-12T15:08:25.272Z,39.44
2022-09-12T15:09:27.856Z,41.98
2022-09-12T15:10:30.428Z,40.20
2022-09-12T15:11:34.526Z,39.21
2022-09-12T15:12:38.528Z,38.98
2022-09-12T15:13:40.888Z,38.49
2022-09-12T15:14:43.406Z,39.00
2022-09-12T15:15:45.933Z,38.57
2022-09-12T15:16:48.392Z,38.87
2022-09-12T15:17:50.961Z,37.78
2022-09-12T15:18:55.063Z,40.02
2022-09-12T15:20:01.411Z,39.10
2022-09-12T15:21:03.605Z,37.71
2022-09-12T15:22:06.184Z,38.25
2022-09-12T15:23:08.659Z,40.45
2022-09-12T15:24:11.206Z,39.40
2022-09-12T15:25:15.320Z,38.66
2022-09-12T15:26:17.911Z,39.45
2022-09-12T15:27:20.403Z,38.54
2022-09-12T15:28:22.930Z,37.91
2022-09-12T15:29:27.125Z,37.78
2022-09-12T15:30:29.487Z,36.80
2022-09-12T15:31:32.161Z,37.94
2022-09-12T15:32:34.556Z,38.83
2022-09-12T15:33:38.658Z,37.01
2022-09-12T15:34:41.313Z,38.95
2022-09-12T15:35:43.978Z,37.84
2022-09-12T15:36:48.109Z,37.62
2022-09-12T15:37:50.430Z,38.14
2022-09-12T15:38:54.576Z,39.42
2022-09-12T15:39:57.047Z,40.21
2022-09-12T15:40:59.522Z,39.81
2022-09-12T15:42:01.987Z,37.47
2022-09-12T15:43:04.555Z,36.47
2022-09-12T15:44:07.117Z,35.69
2022-09-12T15:45:09.724Z,36.23
2022-09-12T15:46:12.343Z,36.57
2022-09-12T15:47:14.847Z,35.80
2022-09-12T15:48:17.398Z,35.32
2022-09-12T15:49:19.850Z,36.34
2022-09-12T15:50:22.455Z,35.36
2022-09-12T15:51:24.920Z,35.44
2022-09-12T15:52:27.505Z,35.49
2022-09-12T15:53:30.071Z,34.89
2022-09-12T15:54:32.545Z,35.50
2022-09-12T15:55:35.115Z,35.91
2022-09-12T15:56:37.548Z,35.72
2022-09-12T15:57:40.144Z,36.48
2022-09-12T15:58:57.550Z,35.43
2022-09-12T15:59:46.113Z,36.79
2022-09-12T16:00:49.553Z,36.55
2022-09-12T16:01:51.953Z,36.10
2022-09-12T16:02:54.442Z,35.21
2022-09-12T16:03:58.539Z,35.39
2022-09-12T16:05:00.925Z,34.87
2022-09-12T16:06:03.456Z,36.53
2022-09-12T16:07:07.580Z,34.50
2022-09-12T16:08:16.676Z,34.23
2022-09-12T16:09:18.812Z,33.46
2022-09-12T16:10:21.302Z,34.27
2022-09-12T16:11:23.797Z,34.40
2022-09-12T16:12:26.323Z,34.71
2022-09-12T16:13:28.830Z,36.00
2022-09-12T16:14:31.390Z,34.59
2022-09-12T16:15:35.543Z,34.44
2022-09-12T16:16:39.456Z,34.37
2022-09-12T16:17:41.813Z,36.09
2022-09-12T16:18:45.998Z,35.01
2022-09-12T16:19:48.286Z,34.50
2022-09-12T16:20:50.805Z,36.32
2022-09-12T16:21:54.864Z,34.64
2022-09-12T16:22:58.886Z,33.45
2022-09-12T16:24:02.840Z,33.76
2022-09-12T16:25:05.210Z,34.10
2022-09-12T16:26:09.300Z,33.59
2022-09-12T16:27:11.691Z,34.07
2022-09-12T16:28:15.799Z,33.58
2022-09-12T16:29:18.157Z,34.29
2022-09-12T16:30:20.706Z,35.16
2022-09-12T16:31:23.218Z,36.08
2022-09-12T16:32:25.735Z,37.30
2022-09-12T16:33:28.252Z,34.88
2022-09-12T16:34:30.716Z,36.42
2022-09-12T16:35:34.831Z,35.59
2022-09-12T16:36:37.221Z,35.39
2022-09-12T16:37:41.310Z,34.53
2022-09-12T16:38:45.303Z,35.42
2022-09-12T16:48:15.328Z,39.47
2022-09-12T16:49:19.472Z,38.65
2022-09-12T16:50:21.927Z,39.65
2022-09-12T16:51:24.406Z,39.98
2022-09-12T16:52:28.510Z,40.70
2022-09-12T16:53:30.862Z,40.01
2022-09-12T16:54:34.961Z,39.96
2022-09-12T16:55:38.913Z,41.62
2022-09-12T16:56:41.367Z,42.54
2022-09-12T16:57:45.430Z,43.70
2022-09-12T16:58:47.829Z,42.58
2022-09-12T16:59:50.235Z,43.61
2022-09-12T17:00:54.358Z,44.37
2022-09-12T17:01:58.299Z,45.08
2022-09-12T17:03:00.676Z,44.53
2022-09-12T17:04:03.157Z,45.82
2022-09-12T17:05:05.589Z,44.84
2022-09-12T17:06:09.682Z,44.73
2022-09-12T17:07:11.971Z,45.14
2022-09-12T17:08:14.483Z,44.47
2022-09-12T17:09:18.564Z,45.12
2022-09-12T17:10:20.911Z,46.11
2022-09-12T17:11:23.437Z,47.22
2022-09-12T17:12:27.514Z,46.80
2022-09-12T17:13:46.819Z,47.16
2022-09-12T17:14:33.813Z,46.80
2022-09-12T17:15:37.887Z,47.24
2022-09-12T17:16:41.740Z,46.38
2022-09-12T17:17:44.143Z,47.56
2022-09-12T17:18:48.254Z,49.36
2022-09-12T17:19:50.543Z,48.43
2022-09-12T17:20:53.019Z,49.24
2022-09-12T17:21:57.121Z,49.27
2022-09-12T17:22:59.467Z,50.00
2022-09-12T17:24:01.991Z,51.18
2022-09-12T17:25:04.464Z,50.50
2022-09-12T17:26:08.540Z,51.73
2022-09-12T17:27:12.418Z,51.45
2022-09-12T17:28:16.374Z,51.16
2022-09-12T17:29:18.710Z,51.25
2022-09-12T17:30:22.852Z,49.79
2022-09-12T17:31:26.835Z,49.09
2022-09-12T17:32:30.711Z,48.97
2022-09-12T17:33:33.051Z,49.44
2022-09-12T17:34:35.528Z,49.45
2022-09-12T17:35:38.024Z,49.75
2022-09-12T17:36:40.455Z,50.27
2022-09-12T17:37:44.536Z,50.60
2022-09-12T17:38:48.499Z,51.25
2022-09-12T17:39:50.902Z,50.95
2022-09-12T17:40:59.321Z,50.89
2022-09-12T17:41:57.475Z,51.04
2022-09-12T17:42:59.770Z,51.63
2022-09-12T17:44:03.912Z,52.38
2022-09-12T17:53:34.839Z,54.57
2022-09-12T18:03:06.658Z,55.00
2022-09-12T18:04:09.139Z,55.78
2022-09-12T18:13:43.820Z,56.62
2022-09-12T18:23:16.001Z,57.04
2022-09-12T18:32:50.094Z,58.18
2022-09-12T18:42:24.429Z,58.40
2022-09-12T18:51:58.838Z,59.76
2022-09-12T19:01:33.069Z,62.84
2022-09-12T19:11:07.286Z,67.14
2022-09-12T19:20:43.407Z,63.72
2022-09-12T19:30:15.761Z,62.61
2022-09-12T19:39:52.166Z,65.43
2022-09-12T19:49:24.739Z,67.53
2022-09-12T19:50:28.877Z,67.96
2022-09-12T20:00:02.165Z,63.56
2022-09-12T20:09:34.797Z,62.80
2022-09-12T20:19:09.465Z,62.06
2022-09-12T20:28:46.033Z,63.80
2022-09-12T20:38:18.674Z,63.05
2022-09-12T20:47:53.401Z,62.73
2022-09-12T20:57:27.636Z,67.07
2022-09-12T21:07:01.612Z,71.83
2022-09-12T21:08:04.083Z,71.94
2022-09-12T21:17:39.138Z,73.10
2022-09-12T21:27:11.175Z,73.52
2022-09-12T21:36:47.047Z,75.16
2022-09-12T21:46:20.780Z,75.01
2022-09-12T21:55:54.232Z,75.48
2022-09-12T22:05:26.581Z,75.32
2022-09-12T22:15:09.065Z,76.44
2022-09-12T22:24:36.928Z,77.54
2022-09-12T22:34:10.834Z,78.93
2022-09-12T22:43:45.127Z,79.25
2022-09-12T22:53:19.560Z,79.97
2022-09-12T23:02:52.293Z,79.15
2022-09-12T23:12:28.115Z,80.72
2022-09-12T23:22:00.875Z,80.89
2022-09-12T23:31:35.435Z,81.96
2022-09-12T23:41:09.559Z,82.48
2022-09-12T23:42:12.014Z,82.65
2022-09-12T23:51:47.203Z,82.18
